ESSB/BMA METAR and TAF weather

Enter ICAO airport designator
Station Type Date Time Source
ESSB METAR 2019/08/25 17:50 UTC NOAA

ESSB 251750Z 16004KT CAVOK 19/15 Q1024


Station Type Date Time Source
ESSB Decoded METAR 2019/08/25 17:50 UTC NOAA

Station name not available
Aug 25, 2019 - 01:50 PM EDT / 2019.08.25 1750 UTC
Wind: from the SSE (160 degrees) at 5 MPH (4 KT):0
Visibility: greater than 7 mile(s):0
Temperature: 66 F (19 C)
Dew Point: 59 F (15 C)
Relative Humidity: 77%
Pressure (altimeter): 30.24 in. Hg (1024 hPa)
ob: ESSB 251750Z 16004KT CAVOK 19/15 Q1024
cycle: 18

Station Type Date Time Source
ESSB TAF 2017/03/27 06:35 UTC NOAA

TAF ESSB 270530Z 2706/2724 27008KT CAVOK
BECMG 2710/2713 29015G25KT

Example: see airport list